Time;durP1;ratioP1;P1;durP2;ratioP2;P2;SDS_P1;SDS_P2;PMS_P1;PMS_P2;Temp;Humidity;BMP_temperature;BMP_pressure;BME280_temperature;BME280_humidity;BME280_pressure;Samples;Min_cycle;Max_cycle;Signal;HPM_P1;HPM_P2
2021/12/06 00:01:20;;;;;;;;;3.50;1.00;;;;;7.08;98.01;100391.91;4812207;29;46679;-82
2021/12/06 00:03:58;;;;;;;;;0.75;0.75;;;;;7.07;97.76;100385.88;4808451;29;45619;-85
2021/12/06 00:06:27;;;;;;;;;2.25;2.00;;;;;7.02;97.68;100376.66;4808352;29;45521;-85
2021/12/06 00:08:53;;;;;;;;;0.00;0.00;;;;;7.00;98.19;100365.50;4808101;29;45686;-83
2021/12/06 00:11:19;;;;;;;;;1.00;1.00;;;;;6.93;98.00;100372.00;4807930;29;45674;-82
2021/12/06 00:13:47;;;;;;;;;2.00;1.50;;;;;6.98;97.83;100370.78;4807527;29;46144;-84
2021/12/06 00:16:18;;;;;;;;;1.00;1.00;;;;;7.13;97.57;100387.25;4791923;29;45814;-81
2021/12/06 00:18:47;;;;;;;;;2.00;1.25;;;;;6.89;97.84;100370.53;4810295;29;46010;-83
2021/12/06 00:21:13;;;;;;;;;1.00;1.00;;;;;7.14;97.77;100395.00;4810206;29;47603;-84
2021/12/06 00:23:39;;;;;;;;;1.00;1.00;;;;;7.15;97.70;100403.66;4809051;29;46114;-83
2021/12/06 00:26:05;;;;;;;;;1.00;1.00;;;;;7.03;97.74;100386.13;4808193;29;45659;-83
2021/12/06 00:28:32;;;;;;;;;4.50;2.00;;;;;6.97;97.86;100376.94;4808306;29;45517;-82
2021/12/06 00:30:57;;;;;;;;;1.00;1.00;;;;;6.94;97.89;100363.25;4809465;29;46441;-85
2021/12/06 00:33:24;;;;;;;;;1.75;1.00;;;;;7.18;98.06;100401.69;4791184;29;47210;-82
2021/12/06 00:35:51;;;;;;;;;2.50;1.00;;;;;7.17;97.89;100417.44;4807263;29;45722;-84
2021/12/06 00:41:40;;;;;;;;;1.50;1.00;;;;;7.18;97.90;100417.31;4805107;29;45722;-84
2021/12/06 00:44:07;;;;;;;;;2.00;2.00;;;;;7.08;97.78;100407.53;4808914;29;46069;-84
2021/12/06 00:46:33;;;;;;;;;2.25;2.00;;;;;7.18;97.64;100424.28;4807226;29;45621;-84
2021/12/06 00:48:58;;;;;;;;;6.00;2.00;;;;;7.15;97.88;100424.47;4790971;29;45820;-83
2021/12/06 00:51:24;;;;;;;;;1.00;1.00;;;;;7.21;97.96;100433.69;4807963;29;46842;-84
2021/12/06 00:53:50;;;;;;;;;2.00;2.00;;;;;6.99;97.87;100408.94;4791170;29;47208;-84
2021/12/06 00:56:16;;;;;;;;;1.75;1.75;;;;;7.22;97.77;100431.00;4809307;29;45635;-86
2021/12/06 00:58:41;;;;;;;;;4.25;3.75;;;;;7.13;97.60;100418.53;4791615;29;45636;-84
2021/12/06 01:01:08;;;;;;;;;1.50;1.00;;;;;7.23;97.88;100434.47;4790956;29;47263;-85
2021/12/06 01:03:37;;;;;;;;;2.00;2.00;;;;;6.98;97.76;100407.25;4807727;29;46150;-82
2021/12/06 01:06:04;;;;;;;;;5.00;3.25;;;;;7.25;97.85;100454.25;4792851;29;45721;-83
2021/12/06 01:11:51;;;;;;;;;1.00;0.75;;;;;7.26;97.78;100448.13;4815821;29;45626;-84
2021/12/06 01:14:18;;;;;;;;;0.50;0.00;;;;;7.11;97.53;100423.00;4793600;29;47893;-84
2021/12/06 01:16:45;;;;;;;;;3.25;1.50;;;;;7.24;97.95;100459.56;4810104;29;45668;-85
2021/12/06 01:19:10;;;;;;;;;5.00;2.00;;;;;7.12;97.55;100454.19;4809341;29;45497;-84
2021/12/06 01:21:47;;;;;;;;;4.00;2.25;;;;;7.19;97.86;100465.03;4790970;29;48890;-83
2021/12/06 01:24:16;;;;;;;;;4.25;2.00;;;;;6.89;97.81;100409.56;4791089;29;46526;-83
2021/12/06 01:32:48;;;;;;;;;5.00;3.25;;;;;7.18;97.84;100471.19;4767601;29;46303;-85
2021/12/06 01:40:42;;;;;;;;;3.75;3.25;;;;;7.09;97.79;100471.72;4750998;29;45599;-85
2021/12/06 01:43:07;;;;;;;;;6.00;3.25;;;;;7.17;97.70;100490.38;4753151;29;45539;-83
2021/12/06 01:45:33;;;;;;;;;3.50;1.25;;;;;7.08;97.72;100480.47;4751926;29;47268;-85
2021/12/06 01:48:01;;;;;;;;;3.75;2.75;;;;;7.07;97.67;100471.00;4752421;29;45709;-85
2021/12/06 01:50:28;;;;;;;;;4.50;2.00;;;;;7.00;97.83;100475.72;4763816;29;45668;-87
2021/12/06 01:52:57;;;;;;;;;3.25;2.00;;;;;6.54;97.77;100391.63;4737074;29;47472;-84
2021/12/06 01:55:26;;;;;;;;;4.25;3.50;;;;;6.80;97.89;100449.19;4735372;29;48523;-85
2021/12/06 01:57:53;;;;;;;;;1.75;1.00;;;;;6.89;97.78;100465.09;4750359;29;45692;-85
2021/12/06 02:00:24;;;;;;;;;1.75;1.00;;;;;7.14;97.66;100513.97;4749851;29;45849;-85
2021/12/06 02:02:50;;;;;;;;;4.50;2.00;;;;;7.12;97.70;100524.50;4750012;29;48475;-84
2021/12/06 02:05:16;;;;;;;;;1.75;1.50;;;;;7.02;97.86;100506.88;4750827;29;48268;-84
2021/12/06 02:07:41;;;;;;;;;6.00;2.00;;;;;6.88;97.87;100470.38;4751056;29;45765;-84
2021/12/06 02:10:08;;;;;;;;;2.00;1.50;;;;;7.10;97.92;100523.75;4740637;29;45668;-84
2021/12/06 02:12:35;;;;;;;;;2.00;2.00;;;;;7.02;97.92;100519.88;4721383;30;47975;-85
2021/12/06 02:15:08;;;;;;;;;1.75;1.75;;;;;7.12;97.68;100531.47;4774846;29;46075;-85
2021/12/06 02:17:39;;;;;;;;;3.75;3.25;;;;;7.02;97.69;100506.88;4809925;29;45772;-85
2021/12/06 02:20:09;;;;;;;;;2.00;1.75;;;;;7.13;97.73;100528.78;4812392;29;45647;-86
2021/12/06 02:22:38;;;;;;;;;3.50;1.25;;;;;6.94;98.00;100496.91;4811887;29;45872;-83
2021/12/06 02:25:09;;;;;;;;;2.25;2.00;;;;;6.65;97.55;100453.47;4796661;29;47054;-84
2021/12/06 02:27:35;;;;;;;;;4.00;3.25;;;;;7.15;97.54;100539.94;4803654;29;45799;-86
2021/12/06 02:30:06;;;;;;;;;3.25;2.00;;;;;6.69;97.78;100463.63;4804119;29;45542;-86
2021/12/06 02:32:31;;;;;;;;;2.75;2.00;;;;;6.88;97.76;100499.03;4803466;29;47393;-84
2021/12/06 02:34:57;;;;;;;;;2.25;2.25;;;;;7.04;97.85;100523.25;4829448;29;45336;-85
2021/12/06 02:37:31;;;;;;;;;4.50;4.00;;;;;7.12;97.89;100534.94;4830804;29;45019;-83
2021/12/06 02:39:58;;;;;;;;;4.25;3.75;;;;;7.01;97.72;100516.47;4815088;29;45159;-85
2021/12/06 02:42:25;;;;;;;;;2.50;2.50;;;;;7.02;97.68;100512.91;4813684;29;47790;-86
2021/12/06 02:44:51;;;;;;;;;2.75;2.75;;;;;7.13;97.85;100546.16;4814652;29;47138;-84
2021/12/06 02:47:18;;;;;;;;;5.00;4.00;;;;;7.13;97.70;100536.59;4807990;29;45874;-84
2021/12/06 02:49:46;;;;;;;;;5.00;3.25;;;;;6.99;97.80;100527.91;4806763;29;45159;-84
2021/12/06 02:52:12;;;;;;;;;3.75;3.75;;;;;7.01;97.88;100513.03;4816809;29;45530;-86
2021/12/06 02:54:39;;;;;;;;;3.50;3.00;;;;;6.82;97.85;100483.75;4812443;29;46267;-85
2021/12/06 02:59:42;;;;;;;;;1.00;1.00;;;;;6.79;97.75;100479.56;4818083;29;45777;-85
2021/12/06 03:02:12;;;;;;;;;3.50;3.25;;;;;7.14;97.76;100538.25;4798480;29;46678;-85
2021/12/06 03:04:40;;;;;;;;;3.25;2.00;;;;;6.92;97.74;100501.38;4795683;29;48179;-86
2021/12/06 03:07:08;;;;;;;;;4.00;2.75;;;;;6.92;97.86;100516.16;4812185;29;45684;-86
2021/12/06 03:12:56;;;;;;;;;2.00;1.50;;;;;7.14;97.69;100559.09;4813301;29;45656;-85
2021/12/06 03:15:23;;;;;;;;;2.00;2.00;;;;;6.94;97.67;100541.19;4798016;29;47808;-84
2021/12/06 03:17:49;;;;;;;;;2.00;2.00;;;;;6.92;97.91;100531.78;4797771;29;45751;-85
2021/12/06 03:20:16;;;;;;;;;6.75;4.00;;;;;6.90;97.58;100536.25;4811931;29;45655;-85
2021/12/06 03:22:43;;;;;;;;;4.50;3.50;;;;;6.81;97.62;100527.19;4812202;29;47457;-85
2021/12/06 03:25:11;;;;;;;;;7.50;3.25;;;;;7.12;97.58;100584.44;4796809;29;47482;-85
2021/12/06 03:27:37;;;;;;;;;2.50;2.50;;;;;6.80;97.57;100522.06;4812756;29;45843;-84
2021/12/06 03:30:06;;;;;;;;;3.25;3.25;;;;;7.08;97.60;100569.03;4813477;29;45737;-85
2021/12/06 03:32:31;;;;;;;;;0.50;0.25;;;;;6.85;97.70;100533.91;4795100;29;47052;-86
2021/12/06 03:34:57;;;;;;;;;6.00;3.25;;;;;7.12;97.70;100575.78;4794770;29;47337;-85
2021/12/06 03:37:23;;;;;;;;;4.50;3.50;;;;;7.13;97.86;100580.88;4794726;29;45683;-84
2021/12/06 03:43:09;;;;;;;;;5.50;3.75;;;;;6.88;97.57;100543.28;4810446;29;45705;-85
2021/12/06 03:45:39;;;;;;;;;4.00;4.00;;;;;6.92;97.81;100560.41;4796220;29;48821;-86
2021/12/06 03:48:05;;;;;;;;;6.75;5.00;;;;;6.83;97.72;100543.56;4795708;29;45942;-84
2021/12/06 03:50:30;;;;;;;;;5.00;4.00;;;;;7.04;97.95;100581.41;4795232;29;45569;-85
2021/12/06 03:52:55;;;;;;;;;6.00;5.25;;;;;6.92;97.57;100560.41;4794261;29;47246;-86
2021/12/06 03:55:21;;;;;;;;;3.25;3.25;;;;;7.06;97.73;100586.53;4810261;29;46638;-86
2021/12/06 03:57:47;;;;;;;;;4.75;4.00;;;;;6.91;97.64;100564.78;4795309;29;45592;-84
2021/12/06 04:00:13;;;;;;;;;5.25;5.00;;;;;6.65;97.81;100515.94;4794358;29;46021;-87
2021/12/06 04:02:40;;;;;;;;;4.75;4.75;;;;;7.08;97.70;100589.88;4794874;29;47253;-84
2021/12/06 04:05:06;;;;;;;;;4.75;4.00;;;;;6.78;97.60;100545.59;4795187;29;48277;-86
2021/12/06 04:07:32;;;;;;;;;4.00;4.00;;;;;6.84;97.60;100560.03;4811359;29;45738;-83
2021/12/06 04:13:18;;;;;;;;;6.00;5.00;;;;;6.95;97.88;100599.31;4807919;29;46118;-85
2021/12/06 04:15:44;;;;;;;;;5.00;3.00;;;;;6.84;97.82;100591.28;4793013;29;48382;-83
2021/12/06 04:18:10;;;;;;;;;4.75;4.00;;;;;7.11;98.03;100640.06;4810916;29;45873;-83
2021/12/06 04:20:36;;;;;;;;;7.50;3.75;;;;;6.99;97.93;100619.06;4811042;29;45653;-87
2021/12/06 04:23:03;;;;;;;;;2.25;2.25;;;;;7.11;97.71;100639.22;4794668;29;48634;-84
2021/12/06 04:25:29;;;;;;;;;3.25;2.00;;;;;7.11;97.67;100645.25;4808266;29;45475;-85
2021/12/06 04:27:56;;;;;;;;;6.00;4.25;;;;;7.13;97.66;100637.34;4807829;29;45619;-83
2021/12/06 04:30:23;;;;;;;;;6.50;4.50;;;;;7.08;97.72;100639.38;4807354;29;45700;-85
2021/12/06 04:32:52;;;;;;;;;5.00;4.50;;;;;7.07;97.58;100633.31;4790521;29;47771;-84
2021/12/06 04:35:18;;;;;;;;;5.00;5.00;;;;;7.03;97.74;100620.56;4790989;29;47192;-83
2021/12/06 04:37:44;;;;;;;;;6.00;5.00;;;;;6.97;97.62;100611.31;4791386;29;45794;-85
2021/12/06 04:43:31;;;;;;;;;5.75;2.00;;;;;7.00;97.79;100618.13;4816407;29;46068;-84
2021/12/06 04:45:57;;;;;;;;;3.75;3.25;;;;;7.13;97.88;100637.34;4822042;29;45781;-84
2021/12/06 04:48:23;;;;;;;;;4.50;3.25;;;;;7.04;97.84;100638.69;4821486;29;45707;-85
2021/12/06 04:50:49;;;;;;;;;4.00;4.00;;;;;6.91;97.74;100629.06;4813788;29;45263;-84
2021/12/06 04:53:21;;;;;;;;;5.25;3.00;;;;;7.20;97.70;100672.56;4791682;29;47648;-83
2021/12/06 04:55:53;;;;;;;;;2.75;2.75;;;;;6.90;97.79;100627.38;4792607;29;48065;-84
2021/12/06 04:58:23;;;;;;;;;3.25;2.25;;;;;7.12;97.89;100648.72;4804948;29;45996;-84
2021/12/06 05:00:56;;;;;;;;;5.50;4.50;;;;;7.22;97.70;100683.75;4806822;29;45727;-84
2021/12/06 05:03:22;;;;;;;;;3.50;3.50;;;;;7.05;97.93;100644.75;4789736;29;48476;-84
2021/12/06 05:05:55;;;;;;;;;6.25;2.75;;;;;7.13;97.69;100652.97;4806237;29;46256;-83
2021/12/06 05:08:24;;;;;;;;;4.50;3.50;;;;;7.26;97.74;100672.22;4805600;29;45593;-85
2021/12/06 05:10:54;;;;;;;;;6.00;5.00;;;;;7.03;98.06;100649.19;4806443;29;45647;-83
2021/12/06 05:13:20;;;;;;;;;5.00;5.00;;;;;6.93;97.79;100635.84;4806189;29;45810;-82
2021/12/06 05:15:46;;;;;;;;;6.00;5.00;;;;;6.95;97.70;100654.84;4789579;29;46889;-85
2021/12/06 05:18:11;;;;;;;;;4.75;2.00;;;;;7.23;97.80;100680.22;4805815;29;45719;-83
2021/12/06 05:20:37;;;;;;;;;5.00;3.50;;;;;7.00;97.65;100652.84;4806142;29;45608;-84
2021/12/06 05:23:09;;;;;;;;;7.25;4.75;;;;;7.17;97.73;100693.56;4789135;29;48593;-85
2021/12/06 05:29:00;;;;;;;;;5.00;3.00;;;;;7.22;97.74;100688.09;4806025;29;45928;-86
2021/12/06 05:31:26;;;;;;;;;3.25;3.25;;;;;7.19;97.56;100686.50;4791313;29;45996;-86
2021/12/06 05:33:57;;;;;;;;;3.25;3.25;;;;;7.23;97.68;100708.03;4809513;29;45886;-83
2021/12/06 05:36:23;;;;;;;;;4.00;2.00;;;;;7.08;97.95;100681.88;4807995;29;47566;-84
2021/12/06 05:38:50;;;;;;;;;3.00;2.00;;;;;7.24;97.75;100713.13;4808695;29;45555;-83
2021/12/06 05:41:16;;;;;;;;;5.00;2.50;;;;;6.71;97.83;100624.94;4789512;29;45868;-82
2021/12/06 05:43:41;;;;;;;;;5.00;5.00;;;;;6.82;97.90;100645.19;4805803;29;48652;-82
2021/12/06 05:46:06;;;;;;;;;2.25;2.25;;;;;7.27;98.06;100715.59;4807186;29;45761;-83
2021/12/06 05:48:32;;;;;;;;;4.75;4.00;;;;;6.97;97.64;100670.38;4789283;29;46061;-82
2021/12/06 05:51:00;;;;;;;;;4.25;3.50;;;;;6.99;97.80;100689.38;4790299;29;45846;-86
2021/12/06 05:53:26;;;;;;;;;3.25;2.00;;;;;7.20;97.71;100716.84;4790539;29;49185;-83
2021/12/06 05:59:15;;;;;;;;;3.00;2.00;;;;;7.16;97.70;100702.31;4809124;29;45639;-81
2021/12/06 06:01:41;;;;;;;;;4.50;3.25;;;;;7.16;97.86;100700.53;4808616;29;45815;-83
2021/12/06 06:04:07;;;;;;;;;4.50;3.00;;;;;7.17;97.78;100709.22;4808745;29;45850;-83
2021/12/06 06:06:35;;;;;;;;;5.00;5.00;;;;;7.22;97.91;100708.94;4791867;29;48074;-82
2021/12/06 06:09:04;;;;;;;;;6.25;5.00;;;;;7.31;97.81;100729.28;4789793;29;46690;-83
2021/12/06 06:11:29;;;;;;;;;5.00;2.25;;;;;7.13;97.40;100707.66;4789234;29;46084;-83
2021/12/06 06:13:55;;;;;;;;;5.50;4.50;;;;;6.99;97.65;100678.94;4805491;29;45553;-84
2021/12/06 06:16:22;;;;;;;;;5.75;2.75;;;;;7.13;97.69;100703.31;4805455;29;45524;-83
2021/12/06 06:18:50;;;;;;;;;4.00;3.00;;;;;6.83;97.45;100652.06;4804849;29;45740;-84
2021/12/06 06:21:16;;;;;;;;;2.50;2.00;;;;;7.25;97.88;100733.06;4789113;29;45779;-85
2021/12/06 06:23:42;;;;;;;;;6.50;4.50;;;;;7.22;97.69;100722.81;4805410;29;45699;-85
2021/12/06 06:29:31;;;;;;;;;5.25;5.00;;;;;7.14;98.07;100709.34;4804540;29;45672;-84
2021/12/06 06:32:00;;;;;;;;;4.00;2.75;;;;;7.20;97.56;100729.03;4802995;29;45694;-84
2021/12/06 06:34:25;;;;;;;;;6.00;5.00;;;;;7.02;97.43;100694.41;4789792;29;46696;-83
2021/12/06 06:36:51;;;;;;;;;5.75;2.75;;;;;7.05;97.56;100699.47;4789137;29;47211;-84
2021/12/06 06:39:19;;;;;;;;;5.50;3.00;;;;;7.40;97.76;100753.03;4789006;29;45794;-83
2021/12/06 06:41:47;;;;;;;;;8.25;6.50;;;;;6.81;97.68;100654.75;4790398;29;45675;-82
2021/12/06 06:44:12;;;;;;;;;5.00;4.00;;;;;7.20;97.67;100727.25;4805318;29;45946;-88
2021/12/06 06:46:38;;;;;;;;;5.00;3.50;;;;;7.43;97.66;100762.47;4790130;29;47229;-82
2021/12/06 06:49:04;;;;;;;;;5.00;5.00;;;;;7.10;97.69;100705.25;4787854;29;45960;-84
2021/12/06 06:51:30;;;;;;;;;7.00;5.25;;;;;7.40;97.74;100744.38;4788707;29;46120;-83
2021/12/06 06:53:56;;;;;;;;;5.00;4.50;;;;;7.20;97.73;100716.00;4787933;29;48286;-82
2021/12/06 06:59:45;;;;;;;;;6.75;6.00;;;;;7.28;97.76;100745.94;4805675;29;45663;-84
2021/12/06 07:02:12;;;;;;;;;7.00;6.00;;;;;7.27;97.69;100751.22;4793274;29;46082;-92
2021/12/06 07:04:37;;;;;;;;;6.75;6.00;;;;;7.12;97.81;100734.69;4808115;29;48763;-82
2021/12/06 07:07:04;;;;;;;;;6.00;6.00;;;;;7.20;97.63;100748.09;4804481;29;46483;-75
2021/12/06 07:12:52;;;;;;;;;7.75;6.00;;;;;7.48;97.67;100792.56;4803505;29;45592;-74
2021/12/06 07:15:22;;;;;;;;;6.25;4.00;;;;;7.50;97.85;100797.72;4803386;29;46456;-76
2021/12/06 07:17:51;;;;;;;;;5.75;5.00;;;;;7.41;97.67;100782.56;4803016;29;45649;-75
2021/12/06 07:20:17;;;;;;;;;6.00;6.00;;;;;7.52;97.81;100803.66;4802759;29;45546;-75
2021/12/06 07:22:44;;;;;;;;;7.50;5.50;;;;;7.53;97.64;100810.56;4803698;29;45818;-75
2021/12/06 07:28:31;;;;;;;;;5.00;5.00;;;;;7.49;97.86;100796.03;4802846;29;46186;-75
2021/12/06 07:30:58;;;;;;;;;6.00;5.00;;;;;7.52;97.67;100807.13;4803584;29;46094;-75
2021/12/06 07:33:25;;;;;;;;;8.25;5.00;;;;;7.51;97.68;100810.63;4803276;29;45794;-76
2021/12/06 07:35:54;;;;;;;;;5.00;5.00;;;;;7.50;97.48;100821.97;4786518;29;47728;-75
2021/12/06 07:44:27;;;;;;;;;9.00;6.00;;;;;7.50;97.73;100797.72;4804347;29;45711;-76
2021/12/06 07:46:53;;;;;;;;;7.00;6.00;;;;;7.55;97.78;100806.13;4789544;29;46556;-76
2021/12/06 07:49:22;;;;;;;;;6.25;5.50;;;;;7.48;97.70;100804.75;4805647;29;45718;-77
2021/12/06 07:51:48;;;;;;;;;9.25;6.00;;;;;7.51;97.71;100808.03;4805603;29;45937;-76
2021/12/06 07:54:13;;;;;;;;;6.00;5.00;;;;;7.51;97.63;100809.78;4806077;29;45888;-74
2021/12/06 08:00:00;;;;;;;;;9.75;6.50;;;;;7.51;97.65;100818.47;4805654;29;46500;-76
2021/12/06 08:02:26;;;;;;;;;7.00;6.50;;;;;7.50;97.74;100821.19;4806006;29;45643;-75
2021/12/06 08:05:29;;;;;;;;;6.00;6.00;;;;;7.53;97.54;100823.59;4806039;29;45909;-77
2021/12/06 08:07:37;;;;;;;;;10.00;7.00;;;;;7.50;97.65;100805.53;4805867;29;46507;-76
2021/12/06 08:10:02;;;;;;;;;6.50;6.50;;;;;7.53;97.48;100814.00;4788871;29;48407;-76
2021/12/06 08:12:28;;;;;;;;;8.00;6.00;;;;;7.56;97.64;100805.16;4805971;29;45536;-75
2021/12/06 08:14:53;;;;;;;;;10.25;6.75;;;;;7.57;97.71;100801.63;4789312;29;46009;-75
2021/12/06 08:17:19;;;;;;;;;9.50;6.50;;;;;7.63;97.54;100803.91;4805152;29;45630;-76
2021/12/06 08:19:45;;;;;;;;;8.75;7.50;;;;;7.65;97.59;100802.06;4805249;29;47233;-76
2021/12/06 08:22:10;;;;;;;;;10.00;9.00;;;;;7.69;97.62;100807.94;4805802;29;45663;-76
2021/12/06 08:24:38;;;;;;;;;8.00;6.00;;;;;7.69;97.39;100798.34;4806166;29;45556;-76
2021/12/06 08:30:26;;;;;;;;;9.75;8.00;;;;;7.82;97.34;100786.31;4805757;29;45689;-77
2021/12/06 08:32:56;;;;;;;;;11.25;9.00;;;;;7.87;97.48;100776.47;4805746;29;46063;-77
2021/12/06 08:35:22;;;;;;;;;9.25;8.50;;;;;7.93;97.76;100788.31;4789276;29;45689;-76
2021/12/06 08:37:48;;;;;;;;;8.25;7.00;;;;;7.97;97.38;100790.66;4805605;29;45582;-76
2021/12/06 08:40:16;;;;;;;;;11.00;8.75;;;;;8.03;97.37;100802.50;4805343;29;45614;-76
2021/12/06 08:42:41;;;;;;;;;7.00;7.00;;;;;8.06;97.20;100797.09;4805486;29;45654;-76
2021/12/06 08:45:08;;;;;;;;;11.00;9.50;;;;;8.10;97.35;100797.78;4805493;29;45709;-76
2021/12/06 08:47:34;;;;;;;;;10.50;8.00;;;;;8.13;97.18;100795.00;4805273;29;46914;-76
2021/12/06 08:49:59;;;;;;;;;10.00;8.00;;;;;8.12;97.24;100791.53;4788608;29;46085;-75
2021/12/06 08:52:25;;;;;;;;;10.00;8.50;;;;;8.20;97.35;100801.53;4805440;29;45690;-76
2021/12/06 08:54:52;;;;;;;;;5.75;5.00;;;;;8.25;97.42;100791.66;4804743;29;45522;-75
2021/12/06 08:57:18;;;;;;;;;6.75;5.75;;;;;8.25;97.16;100778.63;4805235;29;46463;-75
2021/12/06 08:59:43;;;;;;;;;7.00;6.00;;;;;8.31;97.27;100791.34;4805582;29;46937;-75
2021/12/06 09:02:09;;;;;;;;;6.00;5.75;;;;;8.37;97.21;100790.97;4806251;29;45574;-75
2021/12/06 09:04:38;;;;;;;;;7.75;6.00;;;;;8.40;97.02;100785.56;4806002;29;45937;-75
2021/12/06 09:07:11;;;;;;;;;8.75;7.00;;;;;8.40;97.06;100783.81;4805601;29;45890;-76
2021/12/06 09:09:37;;;;;;;;;9.75;7.75;;;;;8.47;97.23;100796.50;4804636;29;46213;-76
2021/12/06 09:15:24;;;;;;;;;10.00;9.75;;;;;8.46;97.16;100789.59;4805080;29;45694;-77
2021/12/06 09:17:52;;;;;;;;;11.50;7.50;;;;;8.52;97.24;100804.91;4788111;29;47458;-76
2021/12/06 09:20:20;;;;;;;;;6.75;5.50;;;;;8.52;97.16;100797.06;4804758;29;46106;-76
2021/12/06 09:22:47;;;;;;;;;2.00;2.00;;;;;8.54;97.26;100798.63;4805049;29;45670;-75
2021/12/06 09:25:15;;;;;;;;;10.25;8.25;;;;;8.55;97.16;100812.53;4804654;29;45705;-74
2021/12/06 09:27:43;;;;;;;;;5.00;3.00;;;;;8.52;97.41;100813.56;4804801;29;47598;-76
2021/12/06 09:30:12;;;;;;;;;5.00;5.00;;;;;8.53;97.18;100801.38;4804584;29;46216;-75
2021/12/06 09:32:39;;;;;;;;;6.00;5.75;;;;;8.54;97.72;100797.78;4804682;29;45818;-76
2021/12/06 09:35:05;;;;;;;;;8.25;7.00;;;;;8.53;97.36;100793.53;4788426;29;45679;-76
2021/12/06 09:37:31;;;;;;;;;7.75;5.50;;;;;8.53;97.36;100801.38;4804730;29;45640;-76
2021/12/06 09:39:57;;;;;;;;;6.75;6.00;;;;;8.53;97.23;100810.00;4804126;29;47015;-76
2021/12/06 09:45:45;;;;;;;;;8.50;6.00;;;;;8.58;97.24;100802.78;4802705;29;45785;-75
2021/12/06 09:48:15;;;;;;;;;10.25;7.00;;;;;8.54;97.19;100801.25;4803980;29;46859;-76
2021/12/06 09:50:55;;;;;;;;;6.00;3.50;;;;;8.50;97.20;100783.25;4804511;29;46156;-76
2021/12/06 09:53:24;;;;;;;;;7.50;7.50;;;;;8.56;97.25;100799.41;4804257;29;45738;-77
2021/12/06 09:55:52;;;;;;;;;17.00;15.00;;;;;8.55;97.27;100800.31;4804709;29;45601;-76
2021/12/06 09:58:19;;;;;;;;;12.25;10.00;;;;;8.57;97.34;100801.09;4804360;29;45705;-75
2021/12/06 10:00:49;;;;;;;;;9.50;7.50;;;;;8.59;97.41;100795.75;4787902;29;46400;-76
2021/12/06 10:03:18;;;;;;;;;10.50;8.25;;;;;8.54;97.25;100787.34;4804305;29;45942;-75
2021/12/06 10:05:44;;;;;;;;;7.75;6.00;;;;;8.60;97.20;100798.28;4787876;29;45516;-75
2021/12/06 10:08:09;;;;;;;;;13.50;9.25;;;;;8.64;97.38;100804.16;4803607;29;46265;-76
2021/12/06 10:10:36;;;;;;;;;11.00;11.00;;;;;8.68;97.08;100797.81;4804117;29;45782;-75
2021/12/06 10:13:02;;;;;;;;;18.50;12.75;;;;;8.71;97.19;100805.47;4804078;29;45793;-74
2021/12/06 10:15:29;;;;;;;;;14.50;12.25;;;;;8.74;96.98;100794.84;4804295;29;45651;-75
2021/12/06 10:17:57;;;;;;;;;13.25;11.00;;;;;8.75;97.36;100788.66;4803614;29;46932;-76
2021/12/06 10:20:25;;;;;;;;;9.25;8.00;;;;;8.78;97.21;100778.06;4787588;29;48064;-75
2021/12/06 10:22:54;;;;;;;;;11.00;8.50;;;;;8.80;97.08;100773.56;4803778;29;45675;-77
2021/12/06 10:25:20;;;;;;;;;11.25;10.50;;;;;8.80;97.07;100763.94;4803843;29;45510;-76
2021/12/06 10:27:57;;;;;;;;;11.00;8.75;;;;;8.84;97.04;100762.84;4803467;29;46357;-75
2021/12/06 10:30:24;;;;;;;;;11.00;10.50;;;;;8.85;96.87;100759.28;4804262;29;45762;-76
2021/12/06 10:33:04;;;;;;;;;13.75;10.50;;;;;8.87;97.13;100769.66;4804497;29;45559;-75
2021/12/06 10:35:30;;;;;;;;;16.00;15.00;;;;;8.89;97.10;100754.72;4804272;29;45617;-76
2021/12/06 10:37:57;;;;;;;;;11.75;11.00;;;;;8.91;97.00;100742.38;4803418;29;46547;-76
2021/12/06 10:40:33;;;;;;;;;18.25;12.25;;;;;8.95;97.07;100732.59;4803923;29;46295;-76
2021/12/06 10:43:04;;;;;;;;;12.50;11.50;;;;;8.91;97.10;100726.72;4803747;29;45743;-76
2021/12/06 10:45:42;;;;;;;;;12.00;10.75;;;;;8.93;97.02;100724.84;4803795;29;45833;-75
2021/12/06 10:48:23;;;;;;;;;15.75;13.00;;;;;9.02;96.89;100723.44;4803551;29;45552;-74
2021/12/06 10:50:51;;;;;;;;;13.00;9.75;;;;;9.04;97.22;100721.56;4803925;29;46492;-75
2021/12/06 10:53:21;;;;;;;;;11.50;7.75;;;;;9.05;97.09;100715.41;4803766;29;45699;-76
2021/12/06 10:55:51;;;;;;;;;10.75;10.50;;;;;9.03;97.25;100706.81;4803994;29;45646;-76
2021/12/06 10:58:19;;;;;;;;;13.25;12.25;;;;;9.10;96.91;100706.34;4803424;29;45630;-76
2021/12/06 11:00:51;;;;;;;;;11.00;10.00;;;;;9.13;96.98;100698.28;4803600;29;46203;-76
2021/12/06 11:03:28;;;;;;;;;9.00;9.00;;;;;9.16;96.95;100698.13;4803750;29;45543;-76
2021/12/06 11:06:01;;;;;;;;;13.25;11.50;;;;;9.12;96.84;100686.16;4787207;29;45656;-76
2021/12/06 11:08:28;;;;;;;;;7.75;7.00;;;;;9.17;97.00;100699.81;4803148;29;45892;-76
2021/12/06 11:11:16;;;;;;;;;10.25;8.25;;;;;9.19;96.72;100691.84;4803077;29;46199;-76
2021/12/06 11:13:47;;;;;;;;;6.50;6.00;;;;;9.17;96.86;100684.13;4803369;29;45813;-75
2021/12/06 11:16:17;;;;;;;;;7.00;7.00;;;;;9.24;96.91;100690.59;4803643;29;45780;-75
2021/12/06 11:18:50;;;;;;;;;10.75;8.75;;;;;9.26;96.96;100687.91;4787881;29;46600;-75
2021/12/06 11:21:44;;;;;;;;;6.50;5.75;;;;;9.25;96.87;100681.84;4806753;29;46379;-75
2021/12/06 11:24:12;;;;;;;;;7.75;6.75;;;;;9.26;96.89;100690.53;4806647;29;45670;-75
2021/12/06 11:27:01;;;;;;;;;8.75;7.00;;;;;9.26;96.87;100699.22;4807135;29;46002;-76
2021/12/06 11:29:41;;;;;;;;;7.50;7.00;;;;;9.25;97.14;100700.13;4805779;29;45606;-76
2021/12/06 11:32:14;;;;;;;;;7.00;6.00;;;;;9.26;96.98;100700.97;4806465;29;46034;-75
2021/12/06 11:35:09;;;;;;;;;8.00;7.00;;;;;9.27;97.12;100692.22;4806538;29;45888;-76
2021/12/06 11:37:49;;;;;;;;;8.00;7.00;;;;;9.19;97.23;100665.69;4789543;29;45680;-76
2021/12/06 11:40:23;;;;;;;;;8.25;8.00;;;;;9.31;96.77;100678.00;4806038;29;47509;-76
2021/12/06 11:43:02;;;;;;;;;7.75;6.50;;;;;9.36;96.94;100670.69;4806483;29;46340;-75
2021/12/06 11:45:33;;;;;;;;;9.50;8.25;;;;;9.35;97.13;100653.31;4806058;29;45872;-76
2021/12/06 11:48:03;;;;;;;;;11.25;9.50;;;;;9.36;96.89;100647.16;4805685;29;45539;-75
2021/12/06 11:50:29;;;;;;;;;7.00;7.00;;;;;9.45;96.85;100649.16;4805646;29;46637;-74
2021/12/06 11:52:56;;;;;;;;;12.25;8.00;;;;;9.45;97.01;100638.69;4805552;29;45675;-75
2021/12/06 11:55:26;;;;;;;;;8.50;7.00;;;;;9.52;96.76;100646.97;4805650;29;45709;-75
2021/12/06 11:57:54;;;;;;;;;6.50;6.50;;;;;9.51;96.83;100646.16;4789125;29;45796;-77
2021/12/06 12:00:23;;;;;;;;;7.00;6.50;;;;;9.53;96.81;100636.44;4805854;29;46868;-75
2021/12/06 12:02:52;;;;;;;;;7.00;7.00;;;;;9.54;96.94;100645.13;4806092;29;47401;-76
2021/12/06 12:05:36;;;;;;;;;11.25;9.00;;;;;9.50;97.01;100641.84;4806244;29;45560;-76
2021/12/06 12:08:13;;;;;;;;;10.25;8.25;;;;;9.53;97.19;100639.03;4806046;29;45559;-75
2021/12/06 12:10:44;;;;;;;;;16.75;14.25;;;;;9.55;96.89;100649.41;4806237;29;46604;-73
2021/12/06 12:13:12;;;;;;;;;13.00;11.00;;;;;9.58;96.98;100652.66;4806238;29;47036;-75
2021/12/06 12:15:38;;;;;;;;;26.00;18.50;;;;;9.62;96.86;100642.81;4805590;29;45878;-77
2021/12/06 12:18:04;;;;;;;;;22.25;18.25;;;;;9.64;96.87;100635.72;4805410;29;45689;-77
2021/12/06 12:20:31;;;;;;;;;18.75;16.00;;;;;9.67;96.80;100641.56;4805160;29;46512;-77
2021/12/06 12:23:01;;;;;;;;;10.50;9.75;;;;;9.68;96.75;100634.56;4805345;29;47438;-76
2021/12/06 12:25:34;;;;;;;;;9.50;8.00;;;;;9.70;96.77;100635.31;4805621;29;45514;-75
2021/12/06 12:28:16;;;;;;;;;8.00;6.75;;;;;9.68;96.88;100624.09;4805471;29;45575;-77
2021/12/06 12:30:43;;;;;;;;;6.25;6.25;;;;;9.71;97.12;100625.69;4803909;29;46730;-76
2021/12/06 12:33:10;;;;;;;;;6.50;5.50;;;;;9.60;96.97;100605.47;4805710;29;46433;-77
2021/12/06 12:35:40;;;;;;;;;7.75;6.25;;;;;9.71;97.13;100620.44;4788913;29;46143;-75
2021/12/06 12:38:06;;;;;;;;;6.00;5.50;;;;;9.63;96.91;100611.34;4805051;29;45874;-76
2021/12/06 12:40:42;;;;;;;;;6.00;4.25;;;;;9.69;96.93;100607.47;4805050;29;46076;-75
2021/12/06 12:43:19;;;;;;;;;4.50;4.50;;;;;9.73;96.61;100610.72;4805536;29;47119;-76
2021/12/06 12:45:51;;;;;;;;;5.00;4.25;;;;;9.74;96.73;100589.69;4788809;29;45841;-76
2021/12/06 12:48:23;;;;;;;;;6.50;6.50;;;;;9.74;96.95;100581.84;4788752;29;45833;-75
2021/12/06 12:51:07;;;;;;;;;7.75;6.00;;;;;9.76;96.91;100577.34;4805378;29;46498;-77